sensor_id;sensor_type;location;lat;lon;timestamp;P1;durP1;ratioP1;P2;durP2;ratioP2
11771;SDS011;12556;55.748;13.194;2023-09-19T00:02:21;6.77;;;4.60;;
11771;SDS011;12556;55.748;13.194;2023-09-19T00:04:48;7.83;;;4.37;;
11771;SDS011;12556;55.748;13.194;2023-09-19T00:07:17;6.30;;;4.50;;
11771;SDS011;12556;55.748;13.194;2023-09-19T00:09:44;8.97;;;4.67;;
11771;SDS011;12556;55.748;13.194;2023-09-19T00:12:11;6.87;;;4.63;;
11771;SDS011;12556;55.748;13.194;2023-09-19T00:14:38;7.90;;;4.20;;
11771;SDS011;12556;55.748;13.194;2023-09-19T00:17:07;7.73;;;4.73;;
11771;SDS011;12556;55.748;13.194;2023-09-19T00:19:34;9.57;;;4.10;;
11771;SDS011;12556;55.748;13.194;2023-09-19T00:22:02;8.77;;;4.77;;
11771;SDS011;12556;55.748;13.194;2023-09-19T00:24:29;8.27;;;4.63;;
11771;SDS011;12556;55.748;13.194;2023-09-19T00:26:56;10.03;;;5.20;;
11771;SDS011;12556;55.748;13.194;2023-09-19T00:29:24;9.83;;;4.63;;
11771;SDS011;12556;55.748;13.194;2023-09-19T00:31:54;8.10;;;3.93;;
11771;SDS011;12556;55.748;13.194;2023-09-19T00:34:22;8.23;;;4.53;;
11771;SDS011;12556;55.748;13.194;2023-09-19T00:36:50;9.63;;;4.60;;
11771;SDS011;12556;55.748;13.194;2023-09-19T00:39:19;9.43;;;4.63;;
11771;SDS011;12556;55.748;13.194;2023-09-19T00:41:47;4.90;;;4.23;;
11771;SDS011;12556;55.748;13.194;2023-09-19T00:44:15;6.53;;;3.90;;
11771;SDS011;12556;55.748;13.194;2023-09-19T00:46:43;5.67;;;4.10;;
11771;SDS011;12556;55.748;13.194;2023-09-19T00:49:13;5.43;;;4.20;;
11771;SDS011;12556;55.748;13.194;2023-09-19T00:51:42;6.93;;;4.10;;
11771;SDS011;12556;55.748;13.194;2023-09-19T00:54:12;8.77;;;4.13;;
11771;SDS011;12556;55.748;13.194;2023-09-19T00:56:43;6.70;;;3.63;;
11771;SDS011;12556;55.748;13.194;2023-09-19T00:59:11;10.47;;;4.20;;
11771;SDS011;12556;55.748;13.194;2023-09-19T01:01:38;4.90;;;4.10;;
11771;SDS011;12556;55.748;13.194;2023-09-19T01:04:06;8.97;;;4.40;;
11771;SDS011;12556;55.748;13.194;2023-09-19T01:06:34;7.10;;;4.07;;
11771;SDS011;12556;55.748;13.194;2023-09-19T01:09:03;8.37;;;4.50;;
11771;SDS011;12556;55.748;13.194;2023-09-19T01:11:32;10.27;;;5.00;;
11771;SDS011;12556;55.748;13.194;2023-09-19T01:14:07;8.37;;;3.80;;
11771;SDS011;12556;55.748;13.194;2023-09-19T01:16:48;7.97;;;4.07;;
11771;SDS011;12556;55.748;13.194;2023-09-19T01:22:24;5.17;;;3.70;;
11771;SDS011;12556;55.748;13.194;2023-09-19T01:25:19;5.57;;;3.90;;
11771;SDS011;12556;55.748;13.194;2023-09-19T01:30:49;8.37;;;4.00;;
11771;SDS011;12556;55.748;13.194;2023-09-19T01:33:23;10.60;;;3.70;;
11771;SDS011;12556;55.748;13.194;2023-09-19T01:35:51;10.67;;;3.43;;
11771;SDS011;12556;55.748;13.194;2023-09-19T01:38:22;5.73;;;3.67;;
11771;SDS011;12556;55.748;13.194;2023-09-19T01:40:52;6.50;;;3.43;;
11771;SDS011;12556;55.748;13.194;2023-09-19T01:43:30;9.77;;;4.20;;
11771;SDS011;12556;55.748;13.194;2023-09-19T01:46:04;7.27;;;3.77;;
11771;SDS011;12556;55.748;13.194;2023-09-19T01:48:38;3.87;;;3.30;;
11771;SDS011;12556;55.748;13.194;2023-09-19T01:51:12;5.10;;;2.90;;
11771;SDS011;12556;55.748;13.194;2023-09-19T01:53:48;7.70;;;3.53;;
11771;SDS011;12556;55.748;13.194;2023-09-19T01:56:22;6.93;;;3.70;;
11771;SDS011;12556;55.748;13.194;2023-09-19T01:58:59;4.87;;;3.23;;
11771;SDS011;12556;55.748;13.194;2023-09-19T02:01:32;8.37;;;3.73;;
11771;SDS011;12556;55.748;13.194;2023-09-19T02:03:59;7.57;;;3.33;;
11771;SDS011;12556;55.748;13.194;2023-09-19T02:06:27;9.63;;;3.33;;
11771;SDS011;12556;55.748;13.194;2023-09-19T02:08:54;6.67;;;3.43;;
11771;SDS011;12556;55.748;13.194;2023-09-19T02:11:21;7.10;;;3.20;;
11771;SDS011;12556;55.748;13.194;2023-09-19T02:13:48;5.70;;;3.17;;
11771;SDS011;12556;55.748;13.194;2023-09-19T02:16:19;5.07;;;3.03;;
11771;SDS011;12556;55.748;13.194;2023-09-19T02:18:48;7.03;;;2.77;;
11771;SDS011;12556;55.748;13.194;2023-09-19T02:21:16;6.03;;;2.73;;
11771;SDS011;12556;55.748;13.194;2023-09-19T02:23:43;5.20;;;2.77;;
11771;SDS011;12556;55.748;13.194;2023-09-19T02:26:12;4.27;;;2.60;;
11771;SDS011;12556;55.748;13.194;2023-09-19T02:28:39;5.33;;;2.43;;
11771;SDS011;12556;55.748;13.194;2023-09-19T02:31:06;5.43;;;2.47;;
11771;SDS011;12556;55.748;13.194;2023-09-19T02:33:33;2.90;;;2.30;;
11771;SDS011;12556;55.748;13.194;2023-09-19T02:36:03;3.77;;;2.00;;
11771;SDS011;12556;55.748;13.194;2023-09-19T02:38:30;3.20;;;1.63;;
11771;SDS011;12556;55.748;13.194;2023-09-19T02:40:57;3.73;;;1.70;;
11771;SDS011;12556;55.748;13.194;2023-09-19T02:43:24;3.07;;;1.97;;
11771;SDS011;12556;55.748;13.194;2023-09-19T02:45:51;2.97;;;1.73;;
11771;SDS011;12556;55.748;13.194;2023-09-19T02:48:19;3.53;;;1.50;;
11771;SDS011;12556;55.748;13.194;2023-09-19T02:50:48;2.30;;;1.60;;
11771;SDS011;12556;55.748;13.194;2023-09-19T02:53:17;2.43;;;1.60;;
11771;SDS011;12556;55.748;13.194;2023-09-19T02:55:45;4.93;;;1.90;;
11771;SDS011;12556;55.748;13.194;2023-09-19T02:58:13;5.57;;;1.60;;
11771;SDS011;12556;55.748;13.194;2023-09-19T03:00:40;6.57;;;1.93;;
11771;SDS011;12556;55.748;13.194;2023-09-19T03:03:12;2.43;;;1.67;;
11771;SDS011;12556;55.748;13.194;2023-09-19T03:05:40;5.30;;;1.70;;
11771;SDS011;12556;55.748;13.194;2023-09-19T03:08:12;4.47;;;1.57;;
11771;SDS011;12556;55.748;13.194;2023-09-19T03:10:41;2.93;;;1.60;;
11771;SDS011;12556;55.748;13.194;2023-09-19T03:13:08;3.40;;;1.87;;
11771;SDS011;12556;55.748;13.194;2023-09-19T03:15:36;4.07;;;1.50;;
11771;SDS011;12556;55.748;13.194;2023-09-19T03:18:04;3.13;;;1.50;;
11771;SDS011;12556;55.748;13.194;2023-09-19T03:20:31;2.87;;;1.87;;
11771;SDS011;12556;55.748;13.194;2023-09-19T03:22:58;4.03;;;1.93;;
11771;SDS011;12556;55.748;13.194;2023-09-19T03:25:25;3.43;;;1.70;;
11771;SDS011;12556;55.748;13.194;2023-09-19T03:27:55;3.13;;;1.77;;
11771;SDS011;12556;55.748;13.194;2023-09-19T03:30:23;4.30;;;2.00;;
11771;SDS011;12556;55.748;13.194;2023-09-19T03:32:51;4.07;;;1.70;;
11771;SDS011;12556;55.748;13.194;2023-09-19T03:35:18;5.07;;;2.07;;
11771;SDS011;12556;55.748;13.194;2023-09-19T03:37:45;3.50;;;1.70;;
11771;SDS011;12556;55.748;13.194;2023-09-19T03:40:12;5.67;;;2.03;;
11771;SDS011;12556;55.748;13.194;2023-09-19T03:42:39;4.80;;;1.90;;
11771;SDS011;12556;55.748;13.194;2023-09-19T03:45:08;4.60;;;2.07;;
11771;SDS011;12556;55.748;13.194;2023-09-19T03:47:38;4.77;;;2.03;;
11771;SDS011;12556;55.748;13.194;2023-09-19T03:50:05;5.50;;;2.40;;
11771;SDS011;12556;55.748;13.194;2023-09-19T03:52:33;3.67;;;2.23;;
11771;SDS011;12556;55.748;13.194;2023-09-19T03:55:00;6.13;;;2.13;;
11771;SDS011;12556;55.748;13.194;2023-09-19T03:57:29;4.13;;;2.27;;
11771;SDS011;12556;55.748;13.194;2023-09-19T03:59:56;5.70;;;1.90;;
11771;SDS011;12556;55.748;13.194;2023-09-19T04:02:25;3.77;;;2.20;;
11771;SDS011;12556;55.748;13.194;2023-09-19T04:04:57;3.37;;;1.83;;
11771;SDS011;12556;55.748;13.194;2023-09-19T04:07:25;3.13;;;1.50;;
11771;SDS011;12556;55.748;13.194;2023-09-19T04:09:54;4.60;;;1.90;;
11771;SDS011;12556;55.748;13.194;2023-09-19T04:12:21;3.37;;;1.93;;
11771;SDS011;12556;55.748;13.194;2023-09-19T04:14:48;4.70;;;1.80;;
11771;SDS011;12556;55.748;13.194;2023-09-19T04:17:16;6.20;;;2.10;;
11771;SDS011;12556;55.748;13.194;2023-09-19T04:19:45;5.37;;;2.20;;
11771;SDS011;12556;55.748;13.194;2023-09-19T04:22:11;2.07;;;1.80;;
11771;SDS011;12556;55.748;13.194;2023-09-19T04:24:39;2.83;;;2.10;;
11771;SDS011;12556;55.748;13.194;2023-09-19T04:27:05;3.93;;;2.17;;
11771;SDS011;12556;55.748;13.194;2023-09-19T04:29:33;5.13;;;2.10;;
11771;SDS011;12556;55.748;13.194;2023-09-19T04:32:00;2.60;;;1.70;;
11771;SDS011;12556;55.748;13.194;2023-09-19T04:34:29;3.40;;;1.87;;
11771;SDS011;12556;55.748;13.194;2023-09-19T04:36:57;4.67;;;1.90;;
11771;SDS011;12556;55.748;13.194;2023-09-19T04:39:25;6.07;;;2.07;;
11771;SDS011;12556;55.748;13.194;2023-09-19T04:41:52;5.43;;;2.30;;
11771;SDS011;12556;55.748;13.194;2023-09-19T04:44:19;4.50;;;1.90;;
11771;SDS011;12556;55.748;13.194;2023-09-19T04:46:47;6.47;;;2.07;;
11771;SDS011;12556;55.748;13.194;2023-09-19T04:49:14;3.40;;;2.20;;
11771;SDS011;12556;55.748;13.194;2023-09-19T04:51:40;6.20;;;2.37;;
11771;SDS011;12556;55.748;13.194;2023-09-19T04:54:09;3.67;;;2.20;;
11771;SDS011;12556;55.748;13.194;2023-09-19T04:56:36;4.70;;;2.00;;
11771;SDS011;12556;55.748;13.194;2023-09-19T04:59:05;6.63;;;2.23;;
11771;SDS011;12556;55.748;13.194;2023-09-19T05:01:32;6.50;;;2.43;;
11771;SDS011;12556;55.748;13.194;2023-09-19T05:03:59;6.73;;;2.40;;
11771;SDS011;12556;55.748;13.194;2023-09-19T05:06:25;7.57;;;2.53;;
11771;SDS011;12556;55.748;13.194;2023-09-19T05:08:52;7.33;;;2.90;;
11771;SDS011;12556;55.748;13.194;2023-09-19T05:11:21;5.30;;;2.40;;
11771;SDS011;12556;55.748;13.194;2023-09-19T05:13:49;6.87;;;2.77;;
11771;SDS011;12556;55.748;13.194;2023-09-19T05:16:18;7.70;;;2.53;;
11771;SDS011;12556;55.748;13.194;2023-09-19T05:18:45;7.60;;;2.73;;
11771;SDS011;12556;55.748;13.194;2023-09-19T05:21:11;6.77;;;2.63;;
11771;SDS011;12556;55.748;13.194;2023-09-19T05:23:38;7.90;;;2.37;;
11771;SDS011;12556;55.748;13.194;2023-09-19T05:26:06;9.27;;;2.90;;
11771;SDS011;12556;55.748;13.194;2023-09-19T05:28:34;6.10;;;2.50;;
11771;SDS011;12556;55.748;13.194;2023-09-19T05:31:03;8.43;;;2.93;;
11771;SDS011;12556;55.748;13.194;2023-09-19T05:33:30;9.00;;;2.70;;
11771;SDS011;12556;55.748;13.194;2023-09-19T05:35:58;8.47;;;2.93;;
11771;SDS011;12556;55.748;13.194;2023-09-19T05:38:25;7.90;;;2.97;;
11771;SDS011;12556;55.748;13.194;2023-09-19T05:40:52;11.83;;;2.80;;
11771;SDS011;12556;55.748;13.194;2023-09-19T05:43:19;6.50;;;2.80;;
11771;SDS011;12556;55.748;13.194;2023-09-19T05:45:48;8.60;;;2.77;;
11771;SDS011;12556;55.748;13.194;2023-09-19T05:48:17;5.73;;;2.27;;
11771;SDS011;12556;55.748;13.194;2023-09-19T05:50:44;9.90;;;3.23;;
11771;SDS011;12556;55.748;13.194;2023-09-19T05:53:13;6.40;;;2.83;;
11771;SDS011;12556;55.748;13.194;2023-09-19T05:55:41;8.13;;;2.67;;
11771;SDS011;12556;55.748;13.194;2023-09-19T05:58:08;6.43;;;2.60;;
11771;SDS011;12556;55.748;13.194;2023-09-19T06:00:38;10.50;;;2.83;;
11771;SDS011;12556;55.748;13.194;2023-09-19T06:03:09;14.50;;;2.83;;
11771;SDS011;12556;55.748;13.194;2023-09-19T06:05:37;8.83;;;2.90;;
11771;SDS011;12556;55.748;13.194;2023-09-19T06:08:06;8.83;;;2.97;;
11771;SDS011;12556;55.748;13.194;2023-09-19T06:10:34;8.57;;;2.53;;
11771;SDS011;12556;55.748;13.194;2023-09-19T06:13:01;9.60;;;2.93;;
11771;SDS011;12556;55.748;13.194;2023-09-19T06:15:29;10.27;;;3.10;;
11771;SDS011;12556;55.748;13.194;2023-09-19T06:17:58;8.17;;;2.53;;
11771;SDS011;12556;55.748;13.194;2023-09-19T06:20:28;9.90;;;3.00;;
11771;SDS011;12556;55.748;13.194;2023-09-19T06:22:56;6.60;;;2.53;;
11771;SDS011;12556;55.748;13.194;2023-09-19T06:25:23;7.77;;;2.40;;
11771;SDS011;12556;55.748;13.194;2023-09-19T06:27:50;8.97;;;3.30;;
11771;SDS011;12556;55.748;13.194;2023-09-19T06:30:18;6.17;;;3.27;;
11771;SDS011;12556;55.748;13.194;2023-09-19T06:32:46;9.10;;;2.73;;
11771;SDS011;12556;55.748;13.194;2023-09-19T06:35:14;5.70;;;2.80;;
11771;SDS011;12556;55.748;13.194;2023-09-19T06:37:43;8.83;;;2.77;;
11771;SDS011;12556;55.748;13.194;2023-09-19T06:40:10;12.67;;;3.20;;
11771;SDS011;12556;55.748;13.194;2023-09-19T06:42:39;5.03;;;2.43;;
11771;SDS011;12556;55.748;13.194;2023-09-19T06:45:07;7.30;;;2.63;;
11771;SDS011;12556;55.748;13.194;2023-09-19T06:47:36;7.20;;;2.50;;
11771;SDS011;12556;55.748;13.194;2023-09-19T06:50:03;5.33;;;2.13;;
11771;SDS011;12556;55.748;13.194;2023-09-19T06:52:34;4.13;;;2.17;;
11771;SDS011;12556;55.748;13.194;2023-09-19T06:55:02;8.27;;;2.53;;
11771;SDS011;12556;55.748;13.194;2023-09-19T06:57:31;7.20;;;2.50;;
11771;SDS011;12556;55.748;13.194;2023-09-19T06:59:58;6.77;;;2.20;;
11771;SDS011;12556;55.748;13.194;2023-09-19T07:02:26;5.40;;;1.90;;
11771;SDS011;12556;55.748;13.194;2023-09-19T07:04:53;4.87;;;2.07;;
11771;SDS011;12556;55.748;13.194;2023-09-19T07:07:20;6.70;;;2.10;;
11771;SDS011;12556;55.748;13.194;2023-09-19T07:09:47;11.57;;;2.67;;
11771;SDS011;12556;55.748;13.194;2023-09-19T07:12:15;4.97;;;2.60;;
11771;SDS011;12556;55.748;13.194;2023-09-19T07:14:43;3.87;;;2.30;;
11771;SDS011;12556;55.748;13.194;2023-09-19T07:17:10;6.20;;;2.30;;
11771;SDS011;12556;55.748;13.194;2023-09-19T07:19:36;7.33;;;2.27;;
11771;SDS011;12556;55.748;13.194;2023-09-19T07:22:03;8.07;;;2.53;;
11771;SDS011;12556;55.748;13.194;2023-09-19T07:24:33;8.23;;;2.23;;
11771;SDS011;12556;55.748;13.194;2023-09-19T07:27:01;5.57;;;2.17;;
11771;SDS011;12556;55.748;13.194;2023-09-19T07:29:31;4.87;;;2.50;;
11771;SDS011;12556;55.748;13.194;2023-09-19T07:31:58;8.83;;;2.57;;
11771;SDS011;12556;55.748;13.194;2023-09-19T07:34:25;10.53;;;3.27;;
11771;SDS011;12556;55.748;13.194;2023-09-19T07:36:52;10.23;;;2.73;;
11771;SDS011;12556;55.748;13.194;2023-09-19T07:39:19;6.63;;;3.00;;
11771;SDS011;12556;55.748;13.194;2023-09-19T07:41:46;7.87;;;2.50;;
11771;SDS011;12556;55.748;13.194;2023-09-19T07:44:13;7.13;;;2.77;;
11771;SDS011;12556;55.748;13.194;2023-09-19T07:46:43;5.33;;;2.60;;
11771;SDS011;12556;55.748;13.194;2023-09-19T07:49:10;5.83;;;2.60;;
11771;SDS011;12556;55.748;13.194;2023-09-19T07:51:37;11.10;;;2.67;;
11771;SDS011;12556;55.748;13.194;2023-09-19T07:54:05;8.17;;;2.60;;
11771;SDS011;12556;55.748;13.194;2023-09-19T07:56:33;11.07;;;3.17;;
11771;SDS011;12556;55.748;13.194;2023-09-19T07:59:00;9.87;;;3.43;;
11771;SDS011;12556;55.748;13.194;2023-09-19T08:01:27;9.40;;;3.00;;
11771;SDS011;12556;55.748;13.194;2023-09-19T08:03:55;13.20;;;3.13;;
11771;SDS011;12556;55.748;13.194;2023-09-19T08:06:22;11.90;;;2.73;;
11771;SDS011;12556;55.748;13.194;2023-09-19T08:08:50;9.43;;;2.97;;
11771;SDS011;12556;55.748;13.194;2023-09-19T08:11:20;9.07;;;3.10;;
11771;SDS011;12556;55.748;13.194;2023-09-19T08:13:49;10.90;;;3.60;;
11771;SDS011;12556;55.748;13.194;2023-09-19T08:16:17;11.33;;;3.00;;
11771;SDS011;12556;55.748;13.194;2023-09-19T08:18:46;10.00;;;2.80;;
11771;SDS011;12556;55.748;13.194;2023-09-19T08:21:15;12.17;;;3.17;;
11771;SDS011;12556;55.748;13.194;2023-09-19T08:23:42;8.67;;;2.57;;
11771;SDS011;12556;55.748;13.194;2023-09-19T08:26:09;8.15;;;2.70;;
11771;SDS011;12556;55.748;13.194;2023-09-19T08:28:36;7.78;;;3.13;;
11771;SDS011;12556;55.748;13.194;2023-09-19T08:31:06;11.88;;;3.80;;
11771;SDS011;12556;55.748;13.194;2023-09-19T08:33:34;7.88;;;3.20;;
11771;SDS011;12556;55.748;13.194;2023-09-19T08:36:02;12.40;;;4.05;;
11771;SDS011;12556;55.748;13.194;2023-09-19T08:38:31;7.93;;;2.85;;
11771;SDS011;12556;55.748;13.194;2023-09-19T08:41:00;7.13;;;2.72;;
11771;SDS011;12556;55.748;13.194;2023-09-19T08:43:31;8.60;;;3.50;;
11771;SDS011;12556;55.748;13.194;2023-09-19T08:46:02;9.15;;;3.00;;
11771;SDS011;12556;55.748;13.194;2023-09-19T08:48:34;11.02;;;3.30;;
11771;SDS011;12556;55.748;13.194;2023-09-19T08:51:07;9.23;;;3.40;;
11771;SDS011;12556;55.748;13.194;2023-09-19T08:53:43;7.80;;;2.95;;
11771;SDS011;12556;55.748;13.194;2023-09-19T08:56:17;7.28;;;3.05;;
11771;SDS011;12556;55.748;13.194;2023-09-19T08:58:46;7.50;;;2.15;;
11771;SDS011;12556;55.748;13.194;2023-09-19T09:01:18;5.05;;;2.58;;
11771;SDS011;12556;55.748;13.194;2023-09-19T09:03:49;6.45;;;2.40;;
11771;SDS011;12556;55.748;13.194;2023-09-19T09:06:18;8.63;;;3.08;;
11771;SDS011;12556;55.748;13.194;2023-09-19T09:08:47;7.38;;;2.70;;
11771;SDS011;12556;55.748;13.194;2023-09-19T09:11:15;5.45;;;2.30;;
11771;SDS011;12556;55.748;13.194;2023-09-19T09:13:43;9.82;;;2.90;;
11771;SDS011;12556;55.748;13.194;2023-09-19T09:16:11;9.63;;;2.72;;
11771;SDS011;12556;55.748;13.194;2023-09-19T09:18:38;10.93;;;2.72;;
11771;SDS011;12556;55.748;13.194;2023-09-19T09:21:06;7.90;;;2.58;;
11771;SDS011;12556;55.748;13.194;2023-09-19T09:23:33;10.88;;;2.58;;
11771;SDS011;12556;55.748;13.194;2023-09-19T09:26:01;6.50;;;2.65;;
11771;SDS011;12556;55.748;13.194;2023-09-19T09:28:31;6.10;;;2.17;;
11771;SDS011;12556;55.748;13.194;2023-09-19T09:31:00;3.23;;;1.47;;
11771;SDS011;12556;55.748;13.194;2023-09-19T09:33:33;5.97;;;1.70;;
11771;SDS011;12556;55.748;13.194;2023-09-19T09:36:00;4.87;;;1.70;;
11771;SDS011;12556;55.748;13.194;2023-09-19T09:38:30;5.53;;;1.77;;
11771;SDS011;12556;55.748;13.194;2023-09-19T09:41:12;5.00;;;2.03;;
11771;SDS011;12556;55.748;13.194;2023-09-19T09:43:52;6.20;;;2.10;;
11771;SDS011;12556;55.748;13.194;2023-09-19T09:46:20;4.10;;;1.70;;
11771;SDS011;12556;55.748;13.194;2023-09-19T09:49:04;5.10;;;1.90;;
11771;SDS011;12556;55.748;13.194;2023-09-19T09:51:41;5.47;;;1.87;;
11771;SDS011;12556;55.748;13.194;2023-09-19T09:54:12;2.83;;;1.60;;
11771;SDS011;12556;55.748;13.194;2023-09-19T09:56:55;6.67;;;2.07;;
11771;SDS011;12556;55.748;13.194;2023-09-19T09:59:44;6.37;;;1.90;;
11771;SDS011;12556;55.748;13.194;2023-09-19T10:02:16;5.10;;;2.13;;
11771;SDS011;12556;55.748;13.194;2023-09-19T10:04:50;3.73;;;1.97;;
11771;SDS011;12556;55.748;13.194;2023-09-19T10:07:27;8.27;;;1.87;;
11771;SDS011;12556;55.748;13.194;2023-09-19T10:09:58;5.83;;;2.07;;
11771;SDS011;12556;55.748;13.194;2023-09-19T10:12:36;7.37;;;2.17;;
11771;SDS011;12556;55.748;13.194;2023-09-19T10:15:07;4.87;;;1.83;;
11771;SDS011;12556;55.748;13.194;2023-09-19T10:17:37;7.40;;;2.10;;
11771;SDS011;12556;55.748;13.194;2023-09-19T10:20:09;4.87;;;2.37;;
11771;SDS011;12556;55.748;13.194;2023-09-19T10:22:47;8.90;;;2.10;;
11771;SDS011;12556;55.748;13.194;2023-09-19T10:25:22;5.57;;;2.10;;
11771;SDS011;12556;55.748;13.194;2023-09-19T10:27:55;4.17;;;1.87;;
11771;SDS011;12556;55.748;13.194;2023-09-19T10:30:23;8.80;;;2.80;;
11771;SDS011;12556;55.748;13.194;2023-09-19T10:32:59;6.17;;;2.30;;
11771;SDS011;12556;55.748;13.194;2023-09-19T10:35:27;4.97;;;2.30;;
11771;SDS011;12556;55.748;13.194;2023-09-19T10:37:56;6.27;;;2.37;;
11771;SDS011;12556;55.748;13.194;2023-09-19T10:40:26;5.33;;;2.20;;
11771;SDS011;12556;55.748;13.194;2023-09-19T10:43:02;8.67;;;2.40;;
11771;SDS011;12556;55.748;13.194;2023-09-19T10:45:31;7.63;;;2.13;;
11771;SDS011;12556;55.748;13.194;2023-09-19T10:47:59;5.37;;;2.10;;
11771;SDS011;12556;55.748;13.194;2023-09-19T10:50:28;7.20;;;2.30;;
11771;SDS011;12556;55.748;13.194;2023-09-19T10:52:59;5.65;;;1.80;;
11771;SDS011;12556;55.748;13.194;2023-09-19T10:55:30;6.88;;;2.00;;
11771;SDS011;12556;55.748;13.194;2023-09-19T10:58:01;5.38;;;2.42;;
11771;SDS011;12556;55.748;13.194;2023-09-19T11:00:49;4.75;;;2.10;;
11771;SDS011;12556;55.748;13.194;2023-09-19T11:03:19;5.65;;;2.28;;
11771;SDS011;12556;55.748;13.194;2023-09-19T11:06:01;7.32;;;2.03;;
11771;SDS011;12556;55.748;13.194;2023-09-19T11:08:46;5.88;;;2.35;;
11771;SDS011;12556;55.748;13.194;2023-09-19T11:11:42;8.13;;;2.10;;
11771;SDS011;12556;55.748;13.194;2023-09-19T11:14:15;6.03;;;2.53;;
11771;SDS011;12556;55.748;13.194;2023-09-19T11:25:51;9.02;;;2.55;;
11771;SDS011;12556;55.748;13.194;2023-09-19T11:28:34;5.57;;;2.10;;
11771;SDS011;12556;55.748;13.194;2023-09-19T11:40:44;5.20;;;2.30;;
11771;SDS011;12556;55.748;13.194;2023-09-19T11:43:29;8.67;;;2.03;;
11771;SDS011;12556;55.748;13.194;2023-09-19T11:46:08;4.63;;;1.73;;
11771;SDS011;12556;55.748;13.194;2023-09-19T11:48:36;7.20;;;2.27;;
11771;SDS011;12556;55.748;13.194;2023-09-19T11:51:14;3.93;;;1.87;;
11771;SDS011;12556;55.748;13.194;2023-09-19T11:53:47;6.40;;;1.73;;
11771;SDS011;12556;55.748;13.194;2023-09-19T11:56:15;5.03;;;1.70;;
11771;SDS011;12556;55.748;13.194;2023-09-19T11:58:45;3.70;;;1.70;;
11771;SDS011;12556;55.748;13.194;2023-09-19T12:01:14;4.65;;;1.60;;
11771;SDS011;12556;55.748;13.194;2023-09-19T12:03:47;6.25;;;1.83;;
11771;SDS011;12556;55.748;13.194;2023-09-19T12:06:20;3.58;;;1.75;;
11771;SDS011;12556;55.748;13.194;2023-09-19T12:08:48;4.93;;;1.73;;
11771;SDS011;12556;55.748;13.194;2023-09-19T12:11:19;6.53;;;1.80;;
11771;SDS011;12556;55.748;13.194;2023-09-19T12:13:48;6.13;;;1.85;;
11771;SDS011;12556;55.748;13.194;2023-09-19T12:16:18;3.97;;;2.10;;
11771;SDS011;12556;55.748;13.194;2023-09-19T12:18:48;4.60;;;2.17;;
11771;SDS011;12556;55.748;13.194;2023-09-19T12:21:26;5.37;;;1.80;;
11771;SDS011;12556;55.748;13.194;2023-09-19T12:23:57;11.70;;;2.47;;
11771;SDS011;12556;55.748;13.194;2023-09-19T12:26:41;6.25;;;2.10;;
11771;SDS011;12556;55.748;13.194;2023-09-19T12:29:14;5.22;;;2.28;;
11771;SDS011;12556;55.748;13.194;2023-09-19T12:31:50;7.88;;;2.38;;
11771;SDS011;12556;55.748;13.194;2023-09-19T12:34:20;5.65;;;2.20;;
11771;SDS011;12556;55.748;13.194;2023-09-19T12:36:49;6.95;;;2.45;;
11771;SDS011;12556;55.748;13.194;2023-09-19T12:39:30;6.47;;;2.15;;
11771;SDS011;12556;55.748;13.194;2023-09-19T12:41:57;7.28;;;2.08;;
11771;SDS011;12556;55.748;13.194;2023-09-19T12:44:25;6.27;;;2.30;;
11771;SDS011;12556;55.748;13.194;2023-09-19T12:46:53;6.00;;;1.80;;
11771;SDS011;12556;55.748;13.194;2023-09-19T12:49:20;4.30;;;2.10;;
11771;SDS011;12556;55.748;13.194;2023-09-19T12:51:48;6.57;;;1.73;;
11771;SDS011;12556;55.748;13.194;2023-09-19T12:54:21;10.47;;;2.57;;
11771;SDS011;12556;55.748;13.194;2023-09-19T12:56:51;6.45;;;2.03;;
11771;SDS011;12556;55.748;13.194;2023-09-19T12:59:19;6.20;;;2.60;;
11771;SDS011;12556;55.748;13.194;2023-09-19T13:02:03;5.95;;;2.50;;
11771;SDS011;12556;55.748;13.194;2023-09-19T13:04:32;9.90;;;2.67;;
11771;SDS011;12556;55.748;13.194;2023-09-19T13:07:06;5.20;;;2.30;;
11771;SDS011;12556;55.748;13.194;2023-09-19T13:09:35;5.80;;;2.60;;
11771;SDS011;12556;55.748;13.194;2023-09-19T13:12:03;3.63;;;1.87;;
11771;SDS011;12556;55.748;13.194;2023-09-19T13:14:32;7.80;;;2.40;;
11771;SDS011;12556;55.748;13.194;2023-09-19T13:17:03;9.23;;;2.20;;
11771;SDS011;12556;55.748;13.194;2023-09-19T13:19:41;4.73;;;2.30;;
11771;SDS011;12556;55.748;13.194;2023-09-19T13:25:08;4.93;;;2.50;;
11771;SDS011;12556;55.748;13.194;2023-09-19T13:27:40;7.60;;;3.25;;
11771;SDS011;12556;55.748;13.194;2023-09-19T13:30:08;6.50;;;2.53;;
11771;SDS011;12556;55.748;13.194;2023-09-19T13:32:35;5.00;;;2.40;;
11771;SDS011;12556;55.748;13.194;2023-09-19T13:35:05;7.20;;;2.70;;
11771;SDS011;12556;55.748;13.194;2023-09-19T13:37:34;6.97;;;2.70;;
11771;SDS011;12556;55.748;13.194;2023-09-19T13:40:05;5.87;;;2.27;;
11771;SDS011;12556;55.748;13.194;2023-09-19T13:42:33;3.88;;;2.10;;
11771;SDS011;12556;55.748;13.194;2023-09-19T13:45:01;8.07;;;2.70;;
11771;SDS011;12556;55.748;13.194;2023-09-19T13:47:29;7.93;;;2.60;;
11771;SDS011;12556;55.748;13.194;2023-09-19T13:49:56;5.93;;;2.53;;
11771;SDS011;12556;55.748;13.194;2023-09-19T13:52:23;8.47;;;2.80;;
11771;SDS011;12556;55.748;13.194;2023-09-19T13:54:53;5.57;;;2.37;;
11771;SDS011;12556;55.748;13.194;2023-09-19T13:57:23;5.80;;;2.63;;
11771;SDS011;12556;55.748;13.194;2023-09-19T13:59:50;7.03;;;2.57;;
11771;SDS011;12556;55.748;13.194;2023-09-19T14:02:19;7.27;;;2.60;;
11771;SDS011;12556;55.748;13.194;2023-09-19T14:04:47;6.27;;;2.30;;
11771;SDS011;12556;55.748;13.194;2023-09-19T14:07:14;6.83;;;2.47;;
11771;SDS011;12556;55.748;13.194;2023-09-19T14:09:42;6.00;;;2.27;;
11771;SDS011;12556;55.748;13.194;2023-09-19T14:12:10;5.07;;;2.77;;
11771;SDS011;12556;55.748;13.194;2023-09-19T14:14:38;7.13;;;2.58;;
11771;SDS011;12556;55.748;13.194;2023-09-19T14:17:05;8.40;;;3.00;;
11771;SDS011;12556;55.748;13.194;2023-09-19T14:19:34;10.03;;;3.23;;
11771;SDS011;12556;55.748;13.194;2023-09-19T14:22:02;9.15;;;3.08;;
11771;SDS011;12556;55.748;13.194;2023-09-19T14:24:32;3.97;;;2.17;;
11771;SDS011;12556;55.748;13.194;2023-09-19T14:26:59;6.60;;;2.35;;
11771;SDS011;12556;55.748;13.194;2023-09-19T14:29:29;7.65;;;2.63;;
11771;SDS011;12556;55.748;13.194;2023-09-19T14:31:57;5.83;;;2.30;;
11771;SDS011;12556;55.748;13.194;2023-09-19T14:34:24;6.75;;;2.35;;
11771;SDS011;12556;55.748;13.194;2023-09-19T14:36:51;10.98;;;2.95;;
11771;SDS011;12556;55.748;13.194;2023-09-19T14:39:19;7.45;;;2.75;;
11771;SDS011;12556;55.748;13.194;2023-09-19T14:41:46;6.63;;;2.30;;
11771;SDS011;12556;55.748;13.194;2023-09-19T14:44:13;6.43;;;2.57;;
11771;SDS011;12556;55.748;13.194;2023-09-19T14:46:41;7.57;;;2.90;;
11771;SDS011;12556;55.748;13.194;2023-09-19T14:49:10;11.50;;;3.23;;
11771;SDS011;12556;55.748;13.194;2023-09-19T14:51:37;9.73;;;2.80;;
11771;SDS011;12556;55.748;13.194;2023-09-19T14:54:05;10.33;;;3.67;;
11771;SDS011;12556;55.748;13.194;2023-09-19T14:56:33;7.50;;;2.57;;
11771;SDS011;12556;55.748;13.194;2023-09-19T14:59:00;8.25;;;3.00;;
11771;SDS011;12556;55.748;13.194;2023-09-19T15:01:27;9.00;;;3.10;;
11771;SDS011;12556;55.748;13.194;2023-09-19T15:03:54;6.23;;;2.90;;
11771;SDS011;12556;55.748;13.194;2023-09-19T15:06:23;8.10;;;3.00;;
11771;SDS011;12556;55.748;13.194;2023-09-19T15:08:51;7.57;;;3.33;;
11771;SDS011;12556;55.748;13.194;2023-09-19T15:11:18;8.43;;;2.80;;
11771;SDS011;12556;55.748;13.194;2023-09-19T15:13:46;6.93;;;2.70;;
11771;SDS011;12556;55.748;13.194;2023-09-19T15:16:14;8.07;;;3.07;;